sensor_id;sensor_type;location;lat;lon;timestamp;temperature;humidity
19214;DHT22;9741;51.020;5.304;2024-03-02T00:01:24;10.10;54.50
19214;DHT22;9741;51.020;5.304;2024-03-02T00:03:51;10.00;54.90
19214;DHT22;9741;51.020;5.304;2024-03-02T00:06:21;9.80;56.10
19214;DHT22;9741;51.020;5.304;2024-03-02T00:08:48;9.70;56.40
19214;DHT22;9741;51.020;5.304;2024-03-02T00:11:16;9.60;56.60
19214;DHT22;9741;51.020;5.304;2024-03-02T00:13:45;9.50;56.90
19214;DHT22;9741;51.020;5.304;2024-03-02T00:16:12;9.40;57.20
19214;DHT22;9741;51.020;5.304;2024-03-02T00:18:39;9.40;57.40
19214;DHT22;9741;51.020;5.304;2024-03-02T00:21:07;9.30;57.50
19214;DHT22;9741;51.020;5.304;2024-03-02T00:23:37;9.20;57.70
19214;DHT22;9741;51.020;5.304;2024-03-02T00:26:04;9.20;58.00
19214;DHT22;9741;51.020;5.304;2024-03-02T00:28:33;9.20;58.50
19214;DHT22;9741;51.020;5.304;2024-03-02T00:31:04;9.10;58.40
19214;DHT22;9741;51.020;5.304;2024-03-02T00:33:33;9.10;58.60
19214;DHT22;9741;51.020;5.304;2024-03-02T00:36:00;9.10;58.80
19214;DHT22;9741;51.020;5.304;2024-03-02T00:38:29;9.00;58.90
19214;DHT22;9741;51.020;5.304;2024-03-02T00:40:58;9.00;59.10
19214;DHT22;9741;51.020;5.304;2024-03-02T00:43:45;9.00;59.30
19214;DHT22;9741;51.020;5.304;2024-03-02T00:46:16;9.00;59.40
19214;DHT22;9741;51.020;5.304;2024-03-02T00:49:02;9.00;59.50
19214;DHT22;9741;51.020;5.304;2024-03-02T00:51:31;9.00;59.70
19214;DHT22;9741;51.020;5.304;2024-03-02T00:54:00;9.00;59.90
19214;DHT22;9741;51.020;5.304;2024-03-02T00:56:31;9.00;60.00
19214;DHT22;9741;51.020;5.304;2024-03-02T00:58:58;9.00;60.10
19214;DHT22;9741;51.020;5.304;2024-03-02T01:01:25;9.10;60.30
19214;DHT22;9741;51.020;5.304;2024-03-02T01:03:53;9.10;60.40
19214;DHT22;9741;51.020;5.304;2024-03-02T01:06:19;9.10;60.40
19214;DHT22;9741;51.020;5.304;2024-03-02T01:08:46;9.10;61.00
19214;DHT22;9741;51.020;5.304;2024-03-02T01:11:16;9.10;60.50
19214;DHT22;9741;51.020;5.304;2024-03-02T01:13:45;9.20;60.60
19214;DHT22;9741;51.020;5.304;2024-03-02T01:16:12;9.20;60.60
19214;DHT22;9741;51.020;5.304;2024-03-02T01:18:38;9.20;60.80
19214;DHT22;9741;51.020;5.304;2024-03-02T01:21:06;9.20;60.80
19214;DHT22;9741;51.020;5.304;2024-03-02T01:23:32;9.20;60.80
19214;DHT22;9741;51.020;5.304;2024-03-02T01:25:59;9.30;60.90
19214;DHT22;9741;51.020;5.304;2024-03-02T01:28:26;9.30;61.00
19214;DHT22;9741;51.020;5.304;2024-03-02T01:30:55;9.30;61.00
19214;DHT22;9741;51.020;5.304;2024-03-02T01:33:21;9.30;61.00
19214;DHT22;9741;51.020;5.304;2024-03-02T01:35:48;9.30;61.00
19214;DHT22;9741;51.020;5.304;2024-03-02T01:38:15;9.30;61.00
19214;DHT22;9741;51.020;5.304;2024-03-02T01:40:42;9.30;61.10
19214;DHT22;9741;51.020;5.304;2024-03-02T01:43:10;9.30;61.20
19214;DHT22;9741;51.020;5.304;2024-03-02T01:45:37;9.30;61.20
19214;DHT22;9741;51.020;5.304;2024-03-02T01:48:06;9.30;61.20
19214;DHT22;9741;51.020;5.304;2024-03-02T01:50:33;9.30;61.30
19214;DHT22;9741;51.020;5.304;2024-03-02T01:53:01;9.20;61.20
19214;DHT22;9741;51.020;5.304;2024-03-02T01:55:28;9.20;61.20
19214;DHT22;9741;51.020;5.304;2024-03-02T01:57:55;9.20;61.20
19214;DHT22;9741;51.020;5.304;2024-03-02T02:00:23;9.10;61.20
19214;DHT22;9741;51.020;5.304;2024-03-02T02:02:52;9.10;61.30
19214;DHT22;9741;51.020;5.304;2024-03-02T02:05:20;9.10;61.30
19214;DHT22;9741;51.020;5.304;2024-03-02T02:07:48;9.10;61.40
19214;DHT22;9741;51.020;5.304;2024-03-02T02:10:15;9.10;61.40
19214;DHT22;9741;51.020;5.304;2024-03-02T02:12:42;9.00;61.30
19214;DHT22;9741;51.020;5.304;2024-03-02T02:15:25;9.10;61.40
19214;DHT22;9741;51.020;5.304;2024-03-02T02:17:52;9.00;61.30
19214;DHT22;9741;51.020;5.304;2024-03-02T02:20:21;9.00;61.40
19214;DHT22;9741;51.020;5.304;2024-03-02T02:22:56;9.00;61.40
19214;DHT22;9741;51.020;5.304;2024-03-02T02:25:22;9.00;61.50
19214;DHT22;9741;51.020;5.304;2024-03-02T02:27:49;9.00;61.40
19214;DHT22;9741;51.020;5.304;2024-03-02T02:30:19;9.00;61.50
19214;DHT22;9741;51.020;5.304;2024-03-02T02:32:46;8.90;61.40
19214;DHT22;9741;51.020;5.304;2024-03-02T02:35:13;8.90;61.50
19214;DHT22;9741;51.020;5.304;2024-03-02T02:37:40;8.90;61.50
19214;DHT22;9741;51.020;5.304;2024-03-02T02:40:10;8.90;61.50
19214;DHT22;9741;51.020;5.304;2024-03-02T02:42:37;8.90;61.50
19214;DHT22;9741;51.020;5.304;2024-03-02T02:45:05;8.90;61.60
19214;DHT22;9741;51.020;5.304;2024-03-02T02:47:32;8.80;61.60
19214;DHT22;9741;51.020;5.304;2024-03-02T02:50:01;8.80;61.60
19214;DHT22;9741;51.020;5.304;2024-03-02T02:52:31;8.80;61.70
19214;DHT22;9741;51.020;5.304;2024-03-02T02:55:01;8.80;61.70
19214;DHT22;9741;51.020;5.304;2024-03-02T02:57:29;8.80;61.70
19214;DHT22;9741;51.020;5.304;2024-03-02T03:00:01;8.80;61.70
19214;DHT22;9741;51.020;5.304;2024-03-02T03:02:31;8.80;61.70
19214;DHT22;9741;51.020;5.304;2024-03-02T03:04:58;8.80;61.70
19214;DHT22;9741;51.020;5.304;2024-03-02T03:07:24;8.80;61.70
19214;DHT22;9741;51.020;5.304;2024-03-02T03:09:51;8.80;61.70
19214;DHT22;9741;51.020;5.304;2024-03-02T03:12:19;8.80;61.80
19214;DHT22;9741;51.020;5.304;2024-03-02T03:14:47;8.80;61.80
19214;DHT22;9741;51.020;5.304;2024-03-02T03:17:14;8.80;61.80
19214;DHT22;9741;51.020;5.304;2024-03-02T03:19:41;8.80;61.80
19214;DHT22;9741;51.020;5.304;2024-03-02T03:22:07;8.80;61.80
19214;DHT22;9741;51.020;5.304;2024-03-02T03:24:34;8.80;61.70
19214;DHT22;9741;51.020;5.304;2024-03-02T03:27:01;8.80;61.70
19214;DHT22;9741;51.020;5.304;2024-03-02T03:29:28;8.80;61.70
19214;DHT22;9741;51.020;5.304;2024-03-02T03:31:56;8.70;61.60
19214;DHT22;9741;51.020;5.304;2024-03-02T03:34:23;8.70;61.60
19214;DHT22;9741;51.020;5.304;2024-03-02T03:36:50;8.70;61.70
19214;DHT22;9741;51.020;5.304;2024-03-02T03:39:17;8.60;61.60
19214;DHT22;9741;51.020;5.304;2024-03-02T03:41:44;8.60;61.60
19214;DHT22;9741;51.020;5.304;2024-03-02T03:44:11;8.60;61.70
19214;DHT22;9741;51.020;5.304;2024-03-02T03:46:38;8.60;61.70
19214;DHT22;9741;51.020;5.304;2024-03-02T03:49:06;8.60;61.70
19214;DHT22;9741;51.020;5.304;2024-03-02T03:51:33;8.50;61.80
19214;DHT22;9741;51.020;5.304;2024-03-02T03:54:01;8.50;61.80
19214;DHT22;9741;51.020;5.304;2024-03-02T03:56:28;8.50;61.80
19214;DHT22;9741;51.020;5.304;2024-03-02T03:58:55;8.50;61.90
19214;DHT22;9741;51.020;5.304;2024-03-02T04:01:21;8.50;61.90
19214;DHT22;9741;51.020;5.304;2024-03-02T04:03:48;8.60;62.00
19214;DHT22;9741;51.020;5.304;2024-03-02T04:06:17;8.60;62.00
19214;DHT22;9741;51.020;5.304;2024-03-02T04:08:43;8.60;61.90
19214;DHT22;9741;51.020;5.304;2024-03-02T04:11:10;8.70;61.90
19214;DHT22;9741;51.020;5.304;2024-03-02T04:13:37;8.70;62.00
19214;DHT22;9741;51.020;5.304;2024-03-02T04:16:05;8.70;61.90
19214;DHT22;9741;51.020;5.304;2024-03-02T04:18:32;8.70;61.90
19214;DHT22;9741;51.020;5.304;2024-03-02T04:20:59;8.70;61.80
19214;DHT22;9741;51.020;5.304;2024-03-02T04:23:27;8.60;61.80
19214;DHT22;9741;51.020;5.304;2024-03-02T04:25:54;8.60;61.80
19214;DHT22;9741;51.020;5.304;2024-03-02T04:28:21;8.50;61.60
19214;DHT22;9741;51.020;5.304;2024-03-02T04:30:48;8.40;61.60
19214;DHT22;9741;51.020;5.304;2024-03-02T04:33:15;8.30;61.60
19214;DHT22;9741;51.020;5.304;2024-03-02T04:35:42;8.20;61.70
19214;DHT22;9741;51.020;5.304;2024-03-02T04:38:09;8.10;61.80
19214;DHT22;9741;51.020;5.304;2024-03-02T04:40:37;8.10;62.00
19214;DHT22;9741;51.020;5.304;2024-03-02T04:43:04;8.10;62.10
19214;DHT22;9741;51.020;5.304;2024-03-02T04:45:31;8.00;62.10
19214;DHT22;9741;51.020;5.304;2024-03-02T04:47:58;8.00;62.10
19214;DHT22;9741;51.020;5.304;2024-03-02T04:50:29;8.00;62.20
19214;DHT22;9741;51.020;5.304;2024-03-02T04:52:59;8.10;62.30
19214;DHT22;9741;51.020;5.304;2024-03-02T04:55:26;8.10;62.30
19214;DHT22;9741;51.020;5.304;2024-03-02T04:58:23;8.10;62.30
19214;DHT22;9741;51.020;5.304;2024-03-02T05:00:50;8.20;62.40
19214;DHT22;9741;51.020;5.304;2024-03-02T05:03:17;8.30;62.40
19214;DHT22;9741;51.020;5.304;2024-03-02T05:05:44;8.30;62.30
19214;DHT22;9741;51.020;5.304;2024-03-02T05:08:11;8.30;62.20
19214;DHT22;9741;51.020;5.304;2024-03-02T05:10:38;8.20;62.10
19214;DHT22;9741;51.020;5.304;2024-03-02T05:13:05;8.10;62.10
19214;DHT22;9741;51.020;5.304;2024-03-02T05:15:33;8.00;62.00
19214;DHT22;9741;51.020;5.304;2024-03-02T05:18:00;8.00;62.10
19214;DHT22;9741;51.020;5.304;2024-03-02T05:20:28;7.90;62.20
19214;DHT22;9741;51.020;5.304;2024-03-02T05:22:55;7.80;62.20
19214;DHT22;9741;51.020;5.304;2024-03-02T05:25:22;7.70;62.30
19214;DHT22;9741;51.020;5.304;2024-03-02T05:27:48;7.70;62.30
19214;DHT22;9741;51.020;5.304;2024-03-02T05:30:15;7.60;62.30
19214;DHT22;9741;51.020;5.304;2024-03-02T05:32:44;7.60;62.40
19214;DHT22;9741;51.020;5.304;2024-03-02T05:35:11;7.50;62.50
19214;DHT22;9741;51.020;5.304;2024-03-02T05:37:38;7.40;62.50
19214;DHT22;9741;51.020;5.304;2024-03-02T05:40:06;7.40;62.60
19214;DHT22;9741;51.020;5.304;2024-03-02T05:42:33;7.30;62.60
19214;DHT22;9741;51.020;5.304;2024-03-02T05:45:00;7.30;62.60
19214;DHT22;9741;51.020;5.304;2024-03-02T05:47:27;7.30;62.80
19214;DHT22;9741;51.020;5.304;2024-03-02T05:49:55;7.30;62.80
19214;DHT22;9741;51.020;5.304;2024-03-02T05:52:22;7.30;62.80
19214;DHT22;9741;51.020;5.304;2024-03-02T05:54:49;7.20;62.80
19214;DHT22;9741;51.020;5.304;2024-03-02T05:57:16;7.20;62.90
19214;DHT22;9741;51.020;5.304;2024-03-02T05:59:57;7.20;63.00
19214;DHT22;9741;51.020;5.304;2024-03-02T06:02:24;7.20;63.00
19214;DHT22;9741;51.020;5.304;2024-03-02T06:04:53;7.30;63.20
19214;DHT22;9741;51.020;5.304;2024-03-02T06:07:22;7.20;63.10
19214;DHT22;9741;51.020;5.304;2024-03-02T06:09:49;7.30;63.20
19214;DHT22;9741;51.020;5.304;2024-03-02T06:12:17;7.30;63.20
19214;DHT22;9741;51.020;5.304;2024-03-02T06:14:44;7.30;63.20
19214;DHT22;9741;51.020;5.304;2024-03-02T06:17:11;7.30;63.30
19214;DHT22;9741;51.020;5.304;2024-03-02T06:19:38;7.30;63.30
19214;DHT22;9741;51.020;5.304;2024-03-02T06:22:05;7.30;63.30
19214;DHT22;9741;51.020;5.304;2024-03-02T06:24:36;7.30;63.30
19214;DHT22;9741;51.020;5.304;2024-03-02T06:27:06;7.30;63.40
19214;DHT22;9741;51.020;5.304;2024-03-02T06:29:33;7.30;63.40
19214;DHT22;9741;51.020;5.304;2024-03-02T06:32:00;7.30;63.50
19214;DHT22;9741;51.020;5.304;2024-03-02T06:34:27;7.30;63.50
19214;DHT22;9741;51.020;5.304;2024-03-02T06:36:54;7.40;63.60
19214;DHT22;9741;51.020;5.304;2024-03-02T06:39:21;7.40;63.60
19214;DHT22;9741;51.020;5.304;2024-03-02T06:41:49;7.40;63.60
19214;DHT22;9741;51.020;5.304;2024-03-02T06:44:16;7.50;63.70
19214;DHT22;9741;51.020;5.304;2024-03-02T06:46:43;7.50;63.70
19214;DHT22;9741;51.020;5.304;2024-03-02T06:49:10;7.50;63.60
19214;DHT22;9741;51.020;5.304;2024-03-02T06:51:37;7.50;63.60
19214;DHT22;9741;51.020;5.304;2024-03-02T06:54:04;7.50;63.60
19214;DHT22;9741;51.020;5.304;2024-03-02T06:56:31;7.50;63.60
19214;DHT22;9741;51.020;5.304;2024-03-02T06:59:01;7.50;63.60
19214;DHT22;9741;51.020;5.304;2024-03-02T07:01:27;7.50;63.60
19214;DHT22;9741;51.020;5.304;2024-03-02T07:03:54;7.60;63.70
19214;DHT22;9741;51.020;5.304;2024-03-02T07:06:21;7.60;63.70
19214;DHT22;9741;51.020;5.304;2024-03-02T07:08:48;7.60;63.70
19214;DHT22;9741;51.020;5.304;2024-03-02T07:11:15;7.60;63.70
19214;DHT22;9741;51.020;5.304;2024-03-02T07:13:42;7.60;63.70
19214;DHT22;9741;51.020;5.304;2024-03-02T07:16:10;7.60;63.70
19214;DHT22;9741;51.020;5.304;2024-03-02T07:18:54;7.60;63.70
19214;DHT22;9741;51.020;5.304;2024-03-02T07:21:22;7.60;63.60
19214;DHT22;9741;51.020;5.304;2024-03-02T07:23:49;7.60;63.60
19214;DHT22;9741;51.020;5.304;2024-03-02T07:26:17;7.60;63.60
19214;DHT22;9741;51.020;5.304;2024-03-02T07:28:45;7.60;63.60
19214;DHT22;9741;51.020;5.304;2024-03-02T07:31:14;7.60;63.60
19214;DHT22;9741;51.020;5.304;2024-03-02T07:33:44;7.60;63.60
19214;DHT22;9741;51.020;5.304;2024-03-02T07:36:11;7.60;63.60
19214;DHT22;9741;51.020;5.304;2024-03-02T07:38:38;7.70;63.70
19214;DHT22;9741;51.020;5.304;2024-03-02T07:41:06;7.60;63.60
19214;DHT22;9741;51.020;5.304;2024-03-02T07:43:34;7.60;63.60
19214;DHT22;9741;51.020;5.304;2024-03-02T07:46:01;7.70;63.80
19214;DHT22;9741;51.020;5.304;2024-03-02T07:48:30;7.70;63.80
19214;DHT22;9741;51.020;5.304;2024-03-02T07:50:57;7.70;63.80
19214;DHT22;9741;51.020;5.304;2024-03-02T07:53:24;7.70;63.80
19214;DHT22;9741;51.020;5.304;2024-03-02T07:55:51;7.80;63.90
19214;DHT22;9741;51.020;5.304;2024-03-02T07:58:18;8.00;64.00
19214;DHT22;9741;51.020;5.304;2024-03-02T08:00:46;8.00;64.00
19214;DHT22;9741;51.020;5.304;2024-03-02T08:03:13;8.20;64.10
19214;DHT22;9741;51.020;5.304;2024-03-02T08:05:42;8.30;64.10
19214;DHT22;9741;51.020;5.304;2024-03-02T08:08:10;8.40;64.10
19214;DHT22;9741;51.020;5.304;2024-03-02T08:10:37;8.60;64.10
19214;DHT22;9741;51.020;5.304;2024-03-02T08:13:04;8.70;64.00
19214;DHT22;9741;51.020;5.304;2024-03-02T08:15:31;8.80;63.90
19214;DHT22;9741;51.020;5.304;2024-03-02T08:17:58;9.00;63.90
19214;DHT22;9741;51.020;5.304;2024-03-02T08:20:26;9.00;63.70
19214;DHT22;9741;51.020;5.304;2024-03-02T08:22:54;9.10;63.60
19214;DHT22;9741;51.020;5.304;2024-03-02T08:25:21;9.20;63.50
19214;DHT22;9741;51.020;5.304;2024-03-02T08:27:48;9.30;63.40
19214;DHT22;9741;51.020;5.304;2024-03-02T08:30:16;9.40;63.40
19214;DHT22;9741;51.020;5.304;2024-03-02T08:32:45;9.40;63.20
19214;DHT22;9741;51.020;5.304;2024-03-02T08:35:13;9.50;63.20
19214;DHT22;9741;51.020;5.304;2024-03-02T08:37:41;9.50;63.10
19214;DHT22;9741;51.020;5.304;2024-03-02T08:40:11;9.60;63.00
19214;DHT22;9741;51.020;5.304;2024-03-02T08:42:38;9.60;62.80
19214;DHT22;9741;51.020;5.304;2024-03-02T08:45:07;9.60;62.70
19214;DHT22;9741;51.020;5.304;2024-03-02T08:47:35;9.70;62.60
19214;DHT22;9741;51.020;5.304;2024-03-02T08:50:02;9.70;62.50
19214;DHT22;9741;51.020;5.304;2024-03-02T08:52:30;9.70;62.50
19214;DHT22;9741;51.020;5.304;2024-03-02T08:54:57;9.80;62.50
19214;DHT22;9741;51.020;5.304;2024-03-02T08:57:28;9.80;62.50
19214;DHT22;9741;51.020;5.304;2024-03-02T08:59:56;9.90;62.40
19214;DHT22;9741;51.020;5.304;2024-03-02T09:02:24;10.00;61.40
19214;DHT22;9741;51.020;5.304;2024-03-02T09:04:52;10.00;61.20
19214;DHT22;9741;51.020;5.304;2024-03-02T09:07:20;10.10;61.20
19214;DHT22;9741;51.020;5.304;2024-03-02T09:09:47;10.20;61.00
19214;DHT22;9741;51.020;5.304;2024-03-02T09:12:14;10.30;60.90
19214;DHT22;9741;51.020;5.304;2024-03-02T09:14:43;10.30;60.70
19214;DHT22;9741;51.020;5.304;2024-03-02T09:17:13;10.40;60.60
19214;DHT22;9741;51.020;5.304;2024-03-02T09:19:40;10.40;60.90
19214;DHT22;9741;51.020;5.304;2024-03-02T09:22:07;10.50;60.30
19214;DHT22;9741;51.020;5.304;2024-03-02T09:24:35;10.60;60.20
19214;DHT22;9741;51.020;5.304;2024-03-02T09:27:08;10.60;60.00
19214;DHT22;9741;51.020;5.304;2024-03-02T09:29:37;10.70;59.90
19214;DHT22;9741;51.020;5.304;2024-03-02T09:32:12;10.80;59.70
19214;DHT22;9741;51.020;5.304;2024-03-02T09:34:40;10.80;59.50
19214;DHT22;9741;51.020;5.304;2024-03-02T09:37:08;10.80;59.30
19214;DHT22;9741;51.020;5.304;2024-03-02T09:39:35;10.80;59.10
19214;DHT22;9741;51.020;5.304;2024-03-02T09:42:06;10.90;59.00
19214;DHT22;9741;51.020;5.304;2024-03-02T09:44:34;10.90;58.80
19214;DHT22;9741;51.020;5.304;2024-03-02T09:47:01;10.90;58.70
19214;DHT22;9741;51.020;5.304;2024-03-02T09:49:33;10.90;58.60
19214;DHT22;9741;51.020;5.304;2024-03-02T09:52:01;11.00;58.50
19214;DHT22;9741;51.020;5.304;2024-03-02T09:54:29;11.00;58.30
19214;DHT22;9741;51.020;5.304;2024-03-02T09:56:57;11.00;58.10
19214;DHT22;9741;51.020;5.304;2024-03-02T09:59:28;11.10;58.10
19214;DHT22;9741;51.020;5.304;2024-03-02T10:01:56;11.10;58.10
19214;DHT22;9741;51.020;5.304;2024-03-02T10:04:26;11.20;58.00
19214;DHT22;9741;51.020;5.304;2024-03-02T10:07:10;11.40;57.90
19214;DHT22;9741;51.020;5.304;2024-03-02T10:09:38;11.50;57.70
19214;DHT22;9741;51.020;5.304;2024-03-02T10:12:07;11.60;57.50
19214;DHT22;9741;51.020;5.304;2024-03-02T10:14:34;11.70;57.40
19214;DHT22;9741;51.020;5.304;2024-03-02T10:17:05;11.80;57.20
19214;DHT22;9741;51.020;5.304;2024-03-02T10:19:33;11.90;57.00
19214;DHT22;9741;51.020;5.304;2024-03-02T10:22:07;12.00;57.00
19214;DHT22;9741;51.020;5.304;2024-03-02T10:24:36;12.10;56.80
19214;DHT22;9741;51.020;5.304;2024-03-02T10:27:08;12.20;56.50
19214;DHT22;9741;51.020;5.304;2024-03-02T10:29:39;12.30;56.40
19214;DHT22;9741;51.020;5.304;2024-03-02T10:32:09;12.30;56.10
19214;DHT22;9741;51.020;5.304;2024-03-02T10:34:37;12.30;56.00
19214;DHT22;9741;51.020;5.304;2024-03-02T10:37:05;12.30;55.90
19214;DHT22;9741;51.020;5.304;2024-03-02T10:39:34;12.40;56.00
19214;DHT22;9741;51.020;5.304;2024-03-02T10:42:03;12.50;55.90
19214;DHT22;9741;51.020;5.304;2024-03-02T10:44:32;12.60;55.80
19214;DHT22;9741;51.020;5.304;2024-03-02T10:47:00;12.70;55.70
19214;DHT22;9741;51.020;5.304;2024-03-02T10:49:29;12.90;55.70
19214;DHT22;9741;51.020;5.304;2024-03-02T10:51:56;12.90;55.50
19214;DHT22;9741;51.020;5.304;2024-03-02T10:54:25;13.00;55.30
19214;DHT22;9741;51.020;5.304;2024-03-02T10:56:56;13.10;55.10
19214;DHT22;9741;51.020;5.304;2024-03-02T10:59:28;13.20;54.90
19214;DHT22;9741;51.020;5.304;2024-03-02T11:01:58;13.20;54.50
19214;DHT22;9741;51.020;5.304;2024-03-02T11:04:27;13.20;54.40
19214;DHT22;9741;51.020;5.304;2024-03-02T11:06:58;13.20;54.20
19214;DHT22;9741;51.020;5.304;2024-03-02T11:09:28;13.10;54.10
19214;DHT22;9741;51.020;5.304;2024-03-02T11:12:03;13.20;54.10
19214;DHT22;9741;51.020;5.304;2024-03-02T11:14:32;13.20;54.00
19214;DHT22;9741;51.020;5.304;2024-03-02T11:17:05;13.20;53.90
19214;DHT22;9741;51.020;5.304;2024-03-02T11:19:40;13.30;53.80
19214;DHT22;9741;51.020;5.304;2024-03-02T11:22:08;13.30;53.70
19214;DHT22;9741;51.020;5.304;2024-03-02T11:24:36;13.40;53.60
19214;DHT22;9741;51.020;5.304;2024-03-02T11:27:04;13.40;53.50
19214;DHT22;9741;51.020;5.304;2024-03-02T11:29:43;13.50;53.50
19214;DHT22;9741;51.020;5.304;2024-03-02T11:32:16;13.50;53.20
19214;DHT22;9741;51.020;5.304;2024-03-02T11:34:48;13.60;53.10
19214;DHT22;9741;51.020;5.304;2024-03-02T11:37:24;13.60;52.90
19214;DHT22;9741;51.020;5.304;2024-03-02T11:39:53;13.70;52.90
19214;DHT22;9741;51.020;5.304;2024-03-02T11:42:20;13.70;52.80
19214;DHT22;9741;51.020;5.304;2024-03-02T11:44:48;13.80;52.60
19214;DHT22;9741;51.020;5.304;2024-03-02T11:47:15;13.80;52.40
19214;DHT22;9741;51.020;5.304;2024-03-02T11:49:46;13.90;52.40
19214;DHT22;9741;51.020;5.304;2024-03-02T11:52:16;14.10;52.40
19214;DHT22;9741;51.020;5.304;2024-03-02T11:54:45;14.10;52.10
19214;DHT22;9741;51.020;5.304;2024-03-02T11:57:19;14.20;51.90
19214;DHT22;9741;51.020;5.304;2024-03-02T11:59:48;14.30;51.70
19214;DHT22;9741;51.020;5.304;2024-03-02T12:02:18;14.30;51.60
19214;DHT22;9741;51.020;5.304;2024-03-02T12:04:46;14.40;51.50
19214;DHT22;9741;51.020;5.304;2024-03-02T12:07:18;14.50;51.50
19214;DHT22;9741;51.020;5.304;2024-03-02T12:09:47;14.60;51.30
19214;DHT22;9741;51.020;5.304;2024-03-02T12:12:14;14.70;51.20
19214;DHT22;9741;51.020;5.304;2024-03-02T12:14:52;14.80;51.00
19214;DHT22;9741;51.020;5.304;2024-03-02T12:17:22;14.90;50.70
19214;DHT22;9741;51.020;5.304;2024-03-02T12:19:49;15.00;50.50
19214;DHT22;9741;51.020;5.304;2024-03-02T12:22:19;15.00;50.40
19214;DHT22;9741;51.020;5.304;2024-03-02T12:24:46;15.00;50.20
19214;DHT22;9741;51.020;5.304;2024-03-02T12:27:13;15.10;50.20
19214;DHT22;9741;51.020;5.304;2024-03-02T12:29:42;15.10;50.00
19214;DHT22;9741;51.020;5.304;2024-03-02T12:32:10;15.10;50.00
19214;DHT22;9741;51.020;5.304;2024-03-02T12:34:38;15.10;50.00
19214;DHT22;9741;51.020;5.304;2024-03-02T12:37:27;15.10;49.80
19214;DHT22;9741;51.020;5.304;2024-03-02T12:40:06;15.10;49.60
19214;DHT22;9741;51.020;5.304;2024-03-02T12:42:38;15.00;49.50
19214;DHT22;9741;51.020;5.304;2024-03-02T12:45:06;15.00;49.50
19214;DHT22;9741;51.020;5.304;2024-03-02T12:47:35;15.00;49.40
19214;DHT22;9741;51.020;5.304;2024-03-02T12:50:04;15.00;49.50
19214;DHT22;9741;51.020;5.304;2024-03-02T12:52:32;15.00;49.50
19214;DHT22;9741;51.020;5.304;2024-03-02T12:54:59;15.00;49.40
19214;DHT22;9741;51.020;5.304;2024-03-02T12:57:29;15.00;49.30
19214;DHT22;9741;51.020;5.304;2024-03-02T12:59:58;15.00;49.30
19214;DHT22;9741;51.020;5.304;2024-03-02T13:02:28;15.10;49.30
19214;DHT22;9741;51.020;5.304;2024-03-02T13:04:58;15.10;49.20
19214;DHT22;9741;51.020;5.304;2024-03-02T13:07:25;15.10;49.20
19214;DHT22;9741;51.020;5.304;2024-03-02T13:09:53;15.20;49.30
19214;DHT22;9741;51.020;5.304;2024-03-02T13:12:22;15.30;49.20
19214;DHT22;9741;51.020;5.304;2024-03-02T13:14:51;15.50;49.40
19214;DHT22;9741;51.020;5.304;2024-03-02T13:17:19;15.70;49.20
19214;DHT22;9741;51.020;5.304;2024-03-02T13:19:52;15.80;49.00
19214;DHT22;9741;51.020;5.304;2024-03-02T13:22:21;15.90;48.80
19214;DHT22;9741;51.020;5.304;2024-03-02T13:24:49;15.90;48.70
19214;DHT22;9741;51.020;5.304;2024-03-02T13:27:16;15.90;48.60
19214;DHT22;9741;51.020;5.304;2024-03-02T13:29:45;15.80;48.50
19214;DHT22;9741;51.020;5.304;2024-03-02T13:32:13;15.70;48.50
19214;DHT22;9741;51.020;5.304;2024-03-02T13:34:41;15.60;48.40
19214;DHT22;9741;51.020;5.304;2024-03-02T13:37:08;15.70;48.70
19214;DHT22;9741;51.020;5.304;2024-03-02T13:39:36;15.80;48.70
19214;DHT22;9741;51.020;5.304;2024-03-02T13:42:07;15.90;48.70
19214;DHT22;9741;51.020;5.304;2024-03-02T13:44:34;16.00;48.60
19214;DHT22;9741;51.020;5.304;2024-03-02T13:47:04;16.10;48.60
19214;DHT22;9741;51.020;5.304;2024-03-02T13:49:31;16.10;48.40
19214;DHT22;9741;51.020;5.304;2024-03-02T13:52:03;16.20;48.40
19214;DHT22;9741;51.020;5.304;2024-03-02T13:54:38;16.10;48.40
19214;DHT22;9741;51.020;5.304;2024-03-02T13:57:06;16.10;48.30
19214;DHT22;9741;51.020;5.304;2024-03-02T13:59:33;16.10;48.20
19214;DHT22;9741;51.020;5.304;2024-03-02T14:02:00;16.10;48.30
19214;DHT22;9741;51.020;5.304;2024-03-02T14:04:30;16.00;48.10
19214;DHT22;9741;51.020;5.304;2024-03-02T14:06:57;16.00;48.70
19214;DHT22;9741;51.020;5.304;2024-03-02T14:09:24;16.00;48.20
19214;DHT22;9741;51.020;5.304;2024-03-02T14:11:54;16.00;48.20
19214;DHT22;9741;51.020;5.304;2024-03-02T14:14:21;16.10;48.20
19214;DHT22;9741;51.020;5.304;2024-03-02T14:16:48;16.10;48.20
19214;DHT22;9741;51.020;5.304;2024-03-02T14:19:19;16.10;48.10
19214;DHT22;9741;51.020;5.304;2024-03-02T14:21:46;16.00;48.00
19214;DHT22;9741;51.020;5.304;2024-03-02T14:24:13;15.90;47.90
19214;DHT22;9741;51.020;5.304;2024-03-02T14:26:40;15.80;47.90
19214;DHT22;9741;51.020;5.304;2024-03-02T14:29:09;15.80;48.00
19214;DHT22;9741;51.020;5.304;2024-03-02T14:31:37;15.70;48.00
19214;DHT22;9741;51.020;5.304;2024-03-02T14:34:06;15.70;48.10
19214;DHT22;9741;51.020;5.304;2024-03-02T14:36:34;15.60;48.10
19214;DHT22;9741;51.020;5.304;2024-03-02T14:39:01;15.60;48.20
19214;DHT22;9741;51.020;5.304;2024-03-02T14:41:29;15.60;48.10
19214;DHT22;9741;51.020;5.304;2024-03-02T14:43:56;15.50;48.10
19214;DHT22;9741;51.020;5.304;2024-03-02T14:46:25;15.50;48.20
19214;DHT22;9741;51.020;5.304;2024-03-02T14:48:52;15.50;48.20
19214;DHT22;9741;51.020;5.304;2024-03-02T14:51:22;15.50;48.20
19214;DHT22;9741;51.020;5.304;2024-03-02T14:53:51;15.50;48.30
19214;DHT22;9741;51.020;5.304;2024-03-02T14:56:20;15.50;48.30
19214;DHT22;9741;51.020;5.304;2024-03-02T14:58:47;15.50;48.40
19214;DHT22;9741;51.020;5.304;2024-03-02T15:01:15;15.60;48.50
19214;DHT22;9741;51.020;5.304;2024-03-02T15:03:44;15.50;48.30
19214;DHT22;9741;51.020;5.304;2024-03-02T15:06:11;15.50;48.30
19214;DHT22;9741;51.020;5.304;2024-03-02T15:08:38;15.50;48.30
19214;DHT22;9741;51.020;5.304;2024-03-02T15:11:07;15.50;48.20
19214;DHT22;9741;51.020;5.304;2024-03-02T15:13:34;15.50;48.30
19214;DHT22;9741;51.020;5.304;2024-03-02T15:16:00;15.50;48.20
19214;DHT22;9741;51.020;5.304;2024-03-02T15:18:27;15.50;48.30
19214;DHT22;9741;51.020;5.304;2024-03-02T15:20:56;15.50;48.30
19214;DHT22;9741;51.020;5.304;2024-03-02T15:23:22;15.50;48.30
19214;DHT22;9741;51.020;5.304;2024-03-02T15:25:50;15.40;48.30
19214;DHT22;9741;51.020;5.304;2024-03-02T15:28:17;15.30;47.80
19214;DHT22;9741;51.020;5.304;2024-03-02T15:30:44;15.30;48.30
19214;DHT22;9741;51.020;5.304;2024-03-02T15:33:11;15.20;48.20
19214;DHT22;9741;51.020;5.304;2024-03-02T15:35:38;15.10;48.20
19214;DHT22;9741;51.020;5.304;2024-03-02T15:38:07;15.10;48.30
19214;DHT22;9741;51.020;5.304;2024-03-02T15:40:37;15.00;48.30
19214;DHT22;9741;51.020;5.304;2024-03-02T15:43:05;15.00;48.50
19214;DHT22;9741;51.020;5.304;2024-03-02T15:45:32;14.90;48.70
19214;DHT22;9741;51.020;5.304;2024-03-02T15:48:00;14.90;48.40
19214;DHT22;9741;51.020;5.304;2024-03-02T15:50:27;14.90;48.60
19214;DHT22;9741;51.020;5.304;2024-03-02T15:52:54;14.90;48.60
19214;DHT22;9741;51.020;5.304;2024-03-02T15:55:25;14.90;48.60
19214;DHT22;9741;51.020;5.304;2024-03-02T15:57:52;14.90;48.60
19214;DHT22;9741;51.020;5.304;2024-03-02T16:00:19;14.90;48.60
19214;DHT22;9741;51.020;5.304;2024-03-02T16:02:49;14.90;48.60